Terminal Aerodrome Forecast
Issued by NWS

Home | Current Version | Previous Version | Text Only | Print | Product List | Glossary On
Versions: 1 2 3 4 5 6 7 8 9 10 11 12 13 14 15 16 17
000
FTUS46 KMTR 310534
TAFOAK
TAF
KOAK 310534Z 3106/0112 33006KT P6SM OVC007
     FM311730 29006KT P6SM FEW008 BKN015
     FM311900 30010KT P6SM FEW012 SCT025
     FM312100 30014KT P6SM FEW008 SCT100
     FM010400 30010KT P6SM BKN008=

USA.gov is the U.S. government's official web portal to all federal, state and local government web resources and services.